<?xml version="1.0" encoding="UTF-8"?>
<gpx version="1.1" creator="2bulu-scraper" xmlns="http://www.topografix.com/GPX/1/1">
  <metadata><name>花山小石林</name><desc>source: 2bulu.com trackId=87137186; exported 2026-09-01T18:40:07.048Z</desc>
    <bounds minlat="27.4992448" minlon="104.4624508" maxlat="27.5103319" maxlon="104.4708796"/>
    <link href="https://www.2bulu.com/track/t-f086X5e861Lp%252FR2KBg5Tzw%253D%253D.htm"><text>2bulu 源页面</text></link>
  </metadata>
  <wpt lat="27.5009327" lon="104.4668121"><ele>2014</ele><name>
        </name></wpt>
  <wpt lat="27.5023957" lon="104.4681321"><ele>1978</ele><name>
        </name></wpt>
  <wpt lat="27.5005531" lon="104.4697148"><ele>1989</ele><name>
        </name></wpt>
  <wpt lat="27.5007965" lon="104.4675566"><ele>1966</ele><name>
        </name></wpt>
  <wpt lat="27.5092735" lon="104.4637985"><ele>2076</ele><name>
        </name></wpt>
  <wpt lat="27.5095506" lon="104.463628"><ele>2058</ele><name>
        </name></wpt>
  <wpt lat="27.5098882" lon="104.4638559"><ele>2065</ele><name>
        </name></wpt>
  <wpt lat="27.5098648" lon="104.4638901"><ele>2088</ele><name>
        </name></wpt>
  <wpt lat="27.5102177" lon="104.4638062"><ele>2086</ele><name>
        </name></wpt>
  <wpt lat="27.5102005" lon="104.463829"><ele>2086</ele><name>
        </name></wpt>
  <wpt lat="27.5102353" lon="104.4639641"><ele>2060</ele><name>
        </name></wpt>
  <wpt lat="27.5099068" lon="104.4639282"><ele>2088</ele><name>
        </name></wpt>
  <wpt lat="27.509903" lon="104.4639206"><ele>2088</ele><name>
        </name></wpt>
  <wpt lat="27.5098743" lon="104.4637375"><ele>2086</ele><name>
        </name></wpt>
  <wpt lat="27.5102749" lon="104.462532"><ele>2103</ele><name>
        </name></wpt>
  <wpt lat="27.5102749" lon="104.462532"><ele>2103</ele><name>
        </name></wpt>
  <wpt lat="27.5102749" lon="104.4625397"><ele>2103</ele><name>
        </name></wpt>
  <wpt lat="27.5101045" lon="104.4624508"><ele>2082</ele><name>
        </name></wpt>
  <wpt lat="27.5098629" lon="104.4623947"><ele>2102</ele><name>
        </name></wpt>
  <wpt lat="27.5098801" lon="104.4624176"><ele>2102</ele><name>
        </name></wpt>
  <wpt lat="27.5099087" lon="104.4627075"><ele>2099</ele><name>
        </name></wpt>
  <wpt lat="27.5074304" lon="104.4646755"><ele>2025</ele><name>
        </name></wpt>
  <trk><name>花山小石林</name>
      <trkseg>
        <trkpt lat="27.5002792" lon="104.4671459"><ele>1959.58</ele><time>2026-07-14T22:01:35.000Z</time></trkpt>
        <trkpt lat="27.5002707" lon="104.4670724"><ele>1959.58</ele><time>2026-07-14T22:01:51.000Z</time></trkpt>
        <trkpt lat="27.5003457" lon="104.4670237"><ele>1963.2</ele><time>2026-07-14T22:02:47.000Z</time></trkpt>
        <trkpt lat="27.5004151" lon="104.4670792"><ele>1966.16</ele><time>2026-07-14T22:02:57.000Z</time></trkpt>
        <trkpt lat="27.5005075" lon="104.4671008"><ele>1966.37</ele><time>2026-07-14T22:03:15.000Z</time></trkpt>
        <trkpt lat="27.5005599" lon="104.467035"><ele>1965.33</ele><time>2026-07-14T22:03:35.000Z</time></trkpt>
        <trkpt lat="27.5006234" lon="104.4669455"><ele>1964.91</ele><time>2026-07-14T22:03:47.000Z</time></trkpt>
        <trkpt lat="27.500671" lon="104.4668468"><ele>1964.96</ele><time>2026-07-14T22:03:59.000Z</time></trkpt>
        <trkpt lat="27.5007235" lon="104.466745"><ele>1964.99</ele><time>2026-07-14T22:04:11.000Z</time></trkpt>
        <trkpt lat="27.5007657" lon="104.466642"><ele>1965.47</ele><time>2026-07-14T22:04:21.000Z</time></trkpt>
        <trkpt lat="27.5008032" lon="104.4665338"><ele>1965.93</ele><time>2026-07-14T22:04:31.000Z</time></trkpt>
        <trkpt lat="27.5008305" lon="104.4664237"><ele>1966.27</ele><time>2026-07-14T22:04:43.000Z</time></trkpt>
        <trkpt lat="27.5009027" lon="104.4664132"><ele>1966.99</ele><time>2026-07-14T22:04:55.000Z</time></trkpt>
        <trkpt lat="27.5009515" lon="104.4664935"><ele>1966.79</ele><time>2026-07-14T22:05:03.000Z</time></trkpt>
        <trkpt lat="27.5010099" lon="104.4665859"><ele>1966.27</ele><time>2026-07-14T22:05:13.000Z</time></trkpt>
        <trkpt lat="27.5010941" lon="104.4666004"><ele>1965.34</ele><time>2026-07-14T22:05:33.000Z</time></trkpt>
        <trkpt lat="27.5011854" lon="104.4666126"><ele>1964.5</ele><time>2026-07-14T22:05:39.000Z</time></trkpt>
        <trkpt lat="27.5012845" lon="104.4666193"><ele>1964.62</ele><time>2026-07-14T22:05:49.000Z</time></trkpt>
        <trkpt lat="27.5012253" lon="104.4666153"><ele>1965.31</ele><time>2026-07-14T22:06:09.000Z</time></trkpt>
        <trkpt lat="27.5011235" lon="104.4666217"><ele>1967.16</ele><time>2026-07-14T22:06:21.000Z</time></trkpt>
        <trkpt lat="27.5010211" lon="104.4666776"><ele>1967.57</ele><time>2026-07-14T22:06:35.000Z</time></trkpt>
        <trkpt lat="27.5009451" lon="104.4667597"><ele>1966.65</ele><time>2026-07-14T22:06:45.000Z</time></trkpt>
        <trkpt lat="27.5008467" lon="104.4668312"><ele>1966.15</ele><time>2026-07-14T22:07:43.000Z</time></trkpt>
        <trkpt lat="27.5007839" lon="104.4669269"><ele>1965.96</ele><time>2026-07-14T22:07:57.000Z</time></trkpt>
        <trkpt lat="27.5007265" lon="104.4670134"><ele>1965.33</ele><time>2026-07-14T22:08:09.000Z</time></trkpt>
        <trkpt lat="27.5006462" lon="104.4670826"><ele>1963.9</ele><time>2026-07-14T22:08:19.000Z</time></trkpt>
        <trkpt lat="27.5006329" lon="104.4671783"><ele>1963.6</ele><time>2026-07-14T22:08:45.000Z</time></trkpt>
        <trkpt lat="27.5006735" lon="104.4672743"><ele>1963.79</ele><time>2026-07-14T22:08:59.000Z</time></trkpt>
        <trkpt lat="27.5007527" lon="104.467358"><ele>1964.32</ele><time>2026-07-14T22:09:05.000Z</time></trkpt>
        <trkpt lat="27.500851" lon="104.4674414"><ele>1964.93</ele><time>2026-07-14T22:09:11.000Z</time></trkpt>
        <trkpt lat="27.5009229" lon="104.4675251"><ele>1965.29</ele><time>2026-07-14T22:09:19.000Z</time></trkpt>
        <trkpt lat="27.5009861" lon="104.4676041"><ele>1966.27</ele><time>2026-07-14T22:09:29.000Z</time></trkpt>
        <trkpt lat="27.5010371" lon="104.4676954"><ele>1967.46</ele><time>2026-07-14T22:09:43.000Z</time></trkpt>
        <trkpt lat="27.5011115" lon="104.4677576"><ele>1969.33</ele><time>2026-07-14T22:09:55.000Z</time></trkpt>
        <trkpt lat="27.5011933" lon="104.4678244"><ele>1970.82</ele><time>2026-07-14T22:10:09.000Z</time></trkpt>
        <trkpt lat="27.5012607" lon="104.4679066"><ele>1971.99</ele><time>2026-07-14T22:10:21.000Z</time></trkpt>
        <trkpt lat="27.5013236" lon="104.4680051"><ele>1972.87</ele><time>2026-07-14T22:10:29.000Z</time></trkpt>
        <trkpt lat="27.5013944" lon="104.4680912"><ele>1974.22</ele><time>2026-07-14T22:10:35.000Z</time></trkpt>
        <trkpt lat="27.5014845" lon="104.4681549"><ele>1975.79</ele><time>2026-07-14T22:10:45.000Z</time></trkpt>
        <trkpt lat="27.5015777" lon="104.4682105"><ele>1977.38</ele><time>2026-07-14T22:10:55.000Z</time></trkpt>
        <trkpt lat="27.5016527" lon="104.4682736"><ele>1979.91</ele><time>2026-07-14T22:11:09.000Z</time></trkpt>
        <trkpt lat="27.5017457" lon="104.468283"><ele>1983.23</ele><time>2026-07-14T22:11:17.000Z</time></trkpt>
        <trkpt lat="27.5018373" lon="104.4682569"><ele>1984.98</ele><time>2026-07-14T22:11:27.000Z</time></trkpt>
        <trkpt lat="27.5019316" lon="104.4682162"><ele>1984.72</ele><time>2026-07-14T22:11:47.000Z</time></trkpt>
        <trkpt lat="27.5020187" lon="104.4681657"><ele>1984.19</ele><time>2026-07-14T22:11:57.000Z</time></trkpt>
        <trkpt lat="27.5021074" lon="104.4681339"><ele>1983.47</ele><time>2026-07-14T22:12:05.000Z</time></trkpt>
        <trkpt lat="27.5021992" lon="104.4680733"><ele>1983.13</ele><time>2026-07-14T22:12:19.000Z</time></trkpt>
        <trkpt lat="27.5022887" lon="104.4680261"><ele>1982.86</ele><time>2026-07-14T22:12:29.000Z</time></trkpt>
        <trkpt lat="27.5023831" lon="104.4680404"><ele>1982.28</ele><time>2026-07-14T22:12:43.000Z</time></trkpt>
        <trkpt lat="27.5023957" lon="104.4681321"><ele>1981.33</ele><time>2026-07-14T22:13:27.000Z</time></trkpt>
        <trkpt lat="27.5023304" lon="104.4682103"><ele>1979.71</ele><time>2026-07-14T22:13:35.000Z</time></trkpt>
        <trkpt lat="27.502235" lon="104.4682867"><ele>1979.68</ele><time>2026-07-14T22:13:43.000Z</time></trkpt>
        <trkpt lat="27.5021352" lon="104.4683515"><ele>1980.42</ele><time>2026-07-14T22:13:51.000Z</time></trkpt>
        <trkpt lat="27.5020374" lon="104.4683902"><ele>1982.2</ele><time>2026-07-14T22:13:59.000Z</time></trkpt>
        <trkpt lat="27.5019394" lon="104.4684189"><ele>1984.19</ele><time>2026-07-14T22:14:11.000Z</time></trkpt>
        <trkpt lat="27.5018453" lon="104.4684649"><ele>1985.11</ele><time>2026-07-14T22:14:21.000Z</time></trkpt>
        <trkpt lat="27.5017468" lon="104.4685159"><ele>1986.15</ele><time>2026-07-14T22:14:31.000Z</time></trkpt>
        <trkpt lat="27.5016474" lon="104.4685713"><ele>1986.88</ele><time>2026-07-14T22:14:41.000Z</time></trkpt>
        <trkpt lat="27.5015573" lon="104.4686413"><ele>1987.42</ele><time>2026-07-14T22:14:51.000Z</time></trkpt>
        <trkpt lat="27.501479" lon="104.4687141"><ele>1988.07</ele><time>2026-07-14T22:15:01.000Z</time></trkpt>
        <trkpt lat="27.5014027" lon="104.4687988"><ele>1988.12</ele><time>2026-07-14T22:15:11.000Z</time></trkpt>
        <trkpt lat="27.5013399" lon="104.4688878"><ele>1987.9</ele><time>2026-07-14T22:15:21.000Z</time></trkpt>
        <trkpt lat="27.5012723" lon="104.4689707"><ele>1988.01</ele><time>2026-07-14T22:15:31.000Z</time></trkpt>
        <trkpt lat="27.5011999" lon="104.4690338"><ele>1988.27</ele><time>2026-07-14T22:15:41.000Z</time></trkpt>
        <trkpt lat="27.5011222" lon="104.4691141"><ele>1988.34</ele><time>2026-07-14T22:15:51.000Z</time></trkpt>
        <trkpt lat="27.5010468" lon="104.4691828"><ele>1988.2</ele><time>2026-07-14T22:16:01.000Z</time></trkpt>
        <trkpt lat="27.5009737" lon="104.4692484"><ele>1988.33</ele><time>2026-07-14T22:16:11.000Z</time></trkpt>
        <trkpt lat="27.5008978" lon="104.4693254"><ele>1989.09</ele><time>2026-07-14T22:16:27.000Z</time></trkpt>
        <trkpt lat="27.500839" lon="104.4694099"><ele>1989.13</ele><time>2026-07-14T22:16:47.000Z</time></trkpt>
        <trkpt lat="27.5007673" lon="104.4694952"><ele>1989.96</ele><time>2026-07-14T22:16:59.000Z</time></trkpt>
        <trkpt lat="27.5006923" lon="104.4695689"><ele>1990.31</ele><time>2026-07-14T22:17:07.000Z</time></trkpt>
        <trkpt lat="27.5006147" lon="104.4696321"><ele>1990.02</ele><time>2026-07-14T22:17:19.000Z</time></trkpt>
        <trkpt lat="27.5005531" lon="104.4697148"><ele>1989.37</ele><time>2026-07-14T22:17:49.000Z</time></trkpt>
        <trkpt lat="27.5004616" lon="104.469742"><ele>1989.11</ele><time>2026-07-14T22:18:03.000Z</time></trkpt>
        <trkpt lat="27.5004081" lon="104.4698396"><ele>1989.75</ele><time>2026-07-14T22:18:13.000Z</time></trkpt>
        <trkpt lat="27.5003543" lon="104.4699302"><ele>1990.29</ele><time>2026-07-14T22:18:25.000Z</time></trkpt>
        <trkpt lat="27.5002821" lon="104.4700154"><ele>1990.48</ele><time>2026-07-14T22:18:39.000Z</time></trkpt>
        <trkpt lat="27.5002036" lon="104.4700791"><ele>1989.83</ele><time>2026-07-14T22:18:49.000Z</time></trkpt>
        <trkpt lat="27.5001222" lon="104.4701311"><ele>1988.32</ele><time>2026-07-14T22:18:59.000Z</time></trkpt>
        <trkpt lat="27.500041" lon="104.4701956"><ele>1987.1</ele><time>2026-07-14T22:19:09.000Z</time></trkpt>
        <trkpt lat="27.499974" lon="104.4702817"><ele>1987.03</ele><time>2026-07-14T22:19:19.000Z</time></trkpt>
        <trkpt lat="27.4999189" lon="104.4703751"><ele>1987.76</ele><time>2026-07-14T22:19:31.000Z</time></trkpt>
        <trkpt lat="27.4998525" lon="104.4704515"><ele>1988.24</ele><time>2026-07-14T22:19:43.000Z</time></trkpt>
        <trkpt lat="27.4998007" lon="104.4705385"><ele>1988.2</ele><time>2026-07-14T22:19:51.000Z</time></trkpt>
        <trkpt lat="27.4997393" lon="104.4706122"><ele>1988.3</ele><time>2026-07-14T22:20:03.000Z</time></trkpt>
        <trkpt lat="27.4996631" lon="104.4706796"><ele>1987.94</ele><time>2026-07-14T22:20:13.000Z</time></trkpt>
        <trkpt lat="27.4995798" lon="104.4707398"><ele>1987.31</ele><time>2026-07-14T22:20:25.000Z</time></trkpt>
        <trkpt lat="27.4994905" lon="104.4707872"><ele>1986.84</ele><time>2026-07-14T22:20:37.000Z</time></trkpt>
        <trkpt lat="27.4994026" lon="104.4708355"><ele>1986.78</ele><time>2026-07-14T22:20:49.000Z</time></trkpt>
        <trkpt lat="27.4993156" lon="104.4708796"><ele>1986.97</ele><time>2026-07-14T22:21:01.000Z</time></trkpt>
        <trkpt lat="27.4992448" lon="104.4708363"><ele>1987.24</ele><time>2026-07-14T22:21:21.000Z</time></trkpt>
        <trkpt lat="27.4992574" lon="104.4707327"><ele>1986.72</ele><time>2026-07-14T22:21:35.000Z</time></trkpt>
        <trkpt lat="27.4993302" lon="104.4706419"><ele>1985.87</ele><time>2026-07-14T22:21:45.000Z</time></trkpt>
        <trkpt lat="27.4993724" lon="104.4705389"><ele>1984.83</ele><time>2026-07-14T22:21:53.000Z</time></trkpt>
        <trkpt lat="27.4994339" lon="104.4704514"><ele>1984.45</ele><time>2026-07-14T22:22:03.000Z</time></trkpt>
        <trkpt lat="27.4995005" lon="104.4703705"><ele>1983.68</ele><time>2026-07-14T22:22:13.000Z</time></trkpt>
        <trkpt lat="27.4995614" lon="104.4702797"><ele>1983.07</ele><time>2026-07-14T22:22:25.000Z</time></trkpt>
        <trkpt lat="27.4996206" lon="104.4701926"><ele>1982.78</ele><time>2026-07-14T22:22:39.000Z</time></trkpt>
        <trkpt lat="27.4996987" lon="104.4701305"><ele>1982.8</ele><time>2026-07-14T22:22:47.000Z</time></trkpt>
        <trkpt lat="27.4997755" lon="104.4700638"><ele>1983</ele><time>2026-07-14T22:22:57.000Z</time></trkpt>
        <trkpt lat="27.4998405" lon="104.4699793"><ele>1982.03</ele><time>2026-07-14T22:23:09.000Z</time></trkpt>
        <trkpt lat="27.499896" lon="104.4698811"><ele>1981.51</ele><time>2026-07-14T22:23:21.000Z</time></trkpt>
        <trkpt lat="27.4999416" lon="104.4697788"><ele>1980.98</ele><time>2026-07-14T22:23:31.000Z</time></trkpt>
        <trkpt lat="27.4999874" lon="104.4696724"><ele>1979.8</ele><time>2026-07-14T22:23:47.000Z</time></trkpt>
        <trkpt lat="27.5000161" lon="104.4695588"><ele>1978.34</ele><time>2026-07-14T22:23:59.000Z</time></trkpt>
        <trkpt lat="27.5000094" lon="104.4694509"><ele>1977.22</ele><time>2026-07-14T22:24:07.000Z</time></trkpt>
        <trkpt lat="27.5000175" lon="104.4693454"><ele>1976.44</ele><time>2026-07-14T22:24:17.000Z</time></trkpt>
        <trkpt lat="27.5000387" lon="104.4692464"><ele>1976</ele><time>2026-07-14T22:24:29.000Z</time></trkpt>
        <trkpt lat="27.5000522" lon="104.4691396"><ele>1976.07</ele><time>2026-07-14T22:24:41.000Z</time></trkpt>
        <trkpt lat="27.5000388" lon="104.4690242"><ele>1975.99</ele><time>2026-07-14T22:24:53.000Z</time></trkpt>
        <trkpt lat="27.5000441" lon="104.4689005"><ele>1975.7</ele><time>2026-07-14T22:25:03.000Z</time></trkpt>
        <trkpt lat="27.500053" lon="104.468779"><ele>1974.82</ele><time>2026-07-14T22:25:13.000Z</time></trkpt>
        <trkpt lat="27.5000525" lon="104.4686605"><ele>1973.64</ele><time>2026-07-14T22:25:25.000Z</time></trkpt>
        <trkpt lat="27.5000438" lon="104.4685539"><ele>1972.35</ele><time>2026-07-14T22:25:37.000Z</time></trkpt>
        <trkpt lat="27.500048" lon="104.4684526"><ele>1971.56</ele><time>2026-07-14T22:26:03.000Z</time></trkpt>
        <trkpt lat="27.500019" lon="104.4683582"><ele>1971.14</ele><time>2026-07-14T22:26:13.000Z</time></trkpt>
        <trkpt lat="27.4999963" lon="104.468257"><ele>1970.93</ele><time>2026-07-14T22:26:21.000Z</time></trkpt>
        <trkpt lat="27.4999881" lon="104.468144"><ele>1971.16</ele><time>2026-07-14T22:26:31.000Z</time></trkpt>
        <trkpt lat="27.4999604" lon="104.468044"><ele>1971.42</ele><time>2026-07-14T22:26:39.000Z</time></trkpt>
        <trkpt lat="27.4999465" lon="104.4679357"><ele>1971.14</ele><time>2026-07-14T22:26:51.000Z</time></trkpt>
        <trkpt lat="27.4999424" lon="104.4678193"><ele>1970.35</ele><time>2026-07-14T22:27:03.000Z</time></trkpt>
        <trkpt lat="27.4999275" lon="104.4677076"><ele>1969.46</ele><time>2026-07-14T22:27:13.000Z</time></trkpt>
        <trkpt lat="27.4999376" lon="104.4676012"><ele>1968.47</ele><time>2026-07-14T22:27:23.000Z</time></trkpt>
        <trkpt lat="27.4999896" lon="104.4675099"><ele>1967.72</ele><time>2026-07-14T22:27:35.000Z</time></trkpt>
        <trkpt lat="27.5000466" lon="104.4674194"><ele>1967.19</ele><time>2026-07-14T22:27:45.000Z</time></trkpt>
        <trkpt lat="27.5000953" lon="104.4673191"><ele>1966.6</ele><time>2026-07-14T22:27:55.000Z</time></trkpt>
        <trkpt lat="27.5001529" lon="104.4672276"><ele>1965.68</ele><time>2026-07-14T22:28:07.000Z</time></trkpt>
        <trkpt lat="27.5002028" lon="104.4671369"><ele>1964.88</ele><time>2026-07-14T22:28:19.000Z</time></trkpt>
        <trkpt lat="27.5002735" lon="104.467058"><ele>1964.23</ele><time>2026-07-14T22:28:31.000Z</time></trkpt>
        <trkpt lat="27.5003666" lon="104.4670577"><ele>1963.91</ele><time>2026-07-14T22:28:39.000Z</time></trkpt>
        <trkpt lat="27.5004458" lon="104.4671168"><ele>1963.4</ele><time>2026-07-14T22:28:49.000Z</time></trkpt>
        <trkpt lat="27.500514" lon="104.4672118"><ele>1963.23</ele><time>2026-07-14T22:28:59.000Z</time></trkpt>
        <trkpt lat="27.5005849" lon="104.4672969"><ele>1963.31</ele><time>2026-07-14T22:29:11.000Z</time></trkpt>
        <trkpt lat="27.5006549" lon="104.467387"><ele>1963.52</ele><time>2026-07-14T22:29:21.000Z</time></trkpt>
        <trkpt lat="27.50073" lon="104.4674713"><ele>1963.93</ele><time>2026-07-14T22:29:31.000Z</time></trkpt>
        <trkpt lat="27.5007965" lon="104.4675566"><ele>1964.51</ele><time>2026-07-14T22:30:17.000Z</time></trkpt>
        <trkpt lat="27.50086" lon="104.4676387"><ele>1964.88</ele><time>2026-07-14T22:30:27.000Z</time></trkpt>
        <trkpt lat="27.5009153" lon="104.467721"><ele>1965.1</ele><time>2026-07-14T22:30:39.000Z</time></trkpt>
        <trkpt lat="27.5009895" lon="104.467802"><ele>1964.45</ele><time>2026-07-14T22:30:49.000Z</time></trkpt>
        <trkpt lat="27.5009356" lon="104.4678187"><ele>1965.05</ele><time>2026-07-14T22:31:41.000Z</time></trkpt>
        <trkpt lat="27.5010468" lon="104.4678561"><ele>1967</ele><time>2026-07-14T22:43:51.000Z</time></trkpt>
        <trkpt lat="27.5011381" lon="104.467874"><ele>1968.16</ele><time>2026-07-14T22:50:59.000Z</time></trkpt>
        <trkpt lat="27.5012112" lon="104.4679908"><ele>1969.48</ele><time>2026-07-14T22:51:03.000Z</time></trkpt>
        <trkpt lat="27.5012781" lon="104.4680939"><ele>1970.47</ele><time>2026-07-14T22:51:07.000Z</time></trkpt>
        <trkpt lat="27.501375" lon="104.4681806"><ele>1971.1</ele><time>2026-07-14T22:51:11.000Z</time></trkpt>
        <trkpt lat="27.50146" lon="104.4682471"><ele>1971.5</ele><time>2026-07-14T22:51:13.000Z</time></trkpt>
        <trkpt lat="27.501582" lon="104.4683333"><ele>1971.92</ele><time>2026-07-14T22:51:17.000Z</time></trkpt>
        <trkpt lat="27.5016948" lon="104.4683303"><ele>1972.4</ele><time>2026-07-14T22:51:19.000Z</time></trkpt>
        <trkpt lat="27.5017895" lon="104.4682774"><ele>1973.04</ele><time>2026-07-14T22:51:21.000Z</time></trkpt>
        <trkpt lat="27.5018978" lon="104.4681973"><ele>1973.53</ele><time>2026-07-14T22:51:25.000Z</time></trkpt>
        <trkpt lat="27.502019" lon="104.46815"><ele>1974.18</ele><time>2026-07-14T22:51:29.000Z</time></trkpt>
        <trkpt lat="27.5021181" lon="104.4681216"><ele>1974.92</ele><time>2026-07-14T22:51:33.000Z</time></trkpt>
        <trkpt lat="27.5022323" lon="104.4681066"><ele>1975.38</ele><time>2026-07-14T22:51:45.000Z</time></trkpt>
        <trkpt lat="27.5023704" lon="104.4680281"><ele>1975.81</ele><time>2026-07-14T22:51:49.000Z</time></trkpt>
        <trkpt lat="27.5024873" lon="104.4679738"><ele>1976</ele><time>2026-07-14T22:51:51.000Z</time></trkpt>
        <trkpt lat="27.5026" lon="104.467935"><ele>1976.18</ele><time>2026-07-14T22:51:53.000Z</time></trkpt>
        <trkpt lat="27.5027103" lon="104.4679039"><ele>1976.33</ele><time>2026-07-14T22:51:55.000Z</time></trkpt>
        <trkpt lat="27.5028201" lon="104.467878"><ele>1976.47</ele><time>2026-07-14T22:51:57.000Z</time></trkpt>
        <trkpt lat="27.5029296" lon="104.4678553"><ele>1976.49</ele><time>2026-07-14T22:51:59.000Z</time></trkpt>
        <trkpt lat="27.5030433" lon="104.4678359"><ele>1976.51</ele><time>2026-07-14T22:52:01.000Z</time></trkpt>
        <trkpt lat="27.503148" lon="104.4677822"><ele>1976.63</ele><time>2026-07-14T22:52:03.000Z</time></trkpt>
        <trkpt lat="27.5032585" lon="104.4677245"><ele>1976.84</ele><time>2026-07-14T22:52:05.000Z</time></trkpt>
        <trkpt lat="27.5033711" lon="104.4676726"><ele>1977.08</ele><time>2026-07-14T22:52:07.000Z</time></trkpt>
        <trkpt lat="27.5034939" lon="104.4676382"><ele>1977.25</ele><time>2026-07-14T22:52:09.000Z</time></trkpt>
        <trkpt lat="27.5036226" lon="104.4676191"><ele>1977.44</ele><time>2026-07-14T22:52:11.000Z</time></trkpt>
        <trkpt lat="27.503744" lon="104.4676151"><ele>1977.58</ele><time>2026-07-14T22:52:13.000Z</time></trkpt>
        <trkpt lat="27.503851" lon="104.4676202"><ele>1977.73</ele><time>2026-07-14T22:52:15.000Z</time></trkpt>
        <trkpt lat="27.5039472" lon="104.467628"><ele>1977.94</ele><time>2026-07-14T22:52:17.000Z</time></trkpt>
        <trkpt lat="27.5040427" lon="104.4676335"><ele>1978.15</ele><time>2026-07-14T22:52:19.000Z</time></trkpt>
        <trkpt lat="27.5041443" lon="104.4676319"><ele>1978.32</ele><time>2026-07-14T22:52:21.000Z</time></trkpt>
        <trkpt lat="27.5042494" lon="104.4676342"><ele>1978.51</ele><time>2026-07-14T22:52:23.000Z</time></trkpt>
        <trkpt lat="27.5043519" lon="104.467637"><ele>1978.73</ele><time>2026-07-14T22:52:25.000Z</time></trkpt>
        <trkpt lat="27.5044486" lon="104.4676399"><ele>1979.02</ele><time>2026-07-14T22:52:27.000Z</time></trkpt>
        <trkpt lat="27.5045894" lon="104.4676344"><ele>1979.32</ele><time>2026-07-14T22:52:31.000Z</time></trkpt>
        <trkpt lat="27.5047094" lon="104.4676276"><ele>1979.86</ele><time>2026-07-14T22:52:35.000Z</time></trkpt>
        <trkpt lat="27.5048482" lon="104.4676235"><ele>1980.45</ele><time>2026-07-14T22:52:39.000Z</time></trkpt>
        <trkpt lat="27.5049562" lon="104.4676104"><ele>1981.28</ele><time>2026-07-14T22:52:41.000Z</time></trkpt>
        <trkpt lat="27.5050504" lon="104.4675934"><ele>1982.1</ele><time>2026-07-14T22:52:43.000Z</time></trkpt>
        <trkpt lat="27.5051457" lon="104.4675872"><ele>1982.82</ele><time>2026-07-14T22:52:45.000Z</time></trkpt>
        <trkpt lat="27.5052449" lon="104.4675874"><ele>1983.48</ele><time>2026-07-14T22:52:47.000Z</time></trkpt>
        <trkpt lat="27.5053429" lon="104.4675861"><ele>1984.09</ele><time>2026-07-14T22:52:49.000Z</time></trkpt>
        <trkpt lat="27.5054351" lon="104.4675826"><ele>1984.68</ele><time>2026-07-14T22:52:51.000Z</time></trkpt>
        <trkpt lat="27.5055854" lon="104.4676"><ele>1985.33</ele><time>2026-07-14T22:52:55.000Z</time></trkpt>
        <trkpt lat="27.5057273" lon="104.4676548"><ele>1986.26</ele><time>2026-07-14T22:52:59.000Z</time></trkpt>
        <trkpt lat="27.5058376" lon="104.4677168"><ele>1987.18</ele><time>2026-07-14T22:53:03.000Z</time></trkpt>
        <trkpt lat="27.5059391" lon="104.4677503"><ele>1987.98</ele><time>2026-07-14T22:53:07.000Z</time></trkpt>
        <trkpt lat="27.5060509" lon="104.4677591"><ele>1988.65</ele><time>2026-07-14T22:53:11.000Z</time></trkpt>
        <trkpt lat="27.5061846" lon="104.4677356"><ele>1989.29</ele><time>2026-07-14T22:53:15.000Z</time></trkpt>
        <trkpt lat="27.5062932" lon="104.4676243"><ele>1989.89</ele><time>2026-07-14T22:53:19.000Z</time></trkpt>
        <trkpt lat="27.5063635" lon="104.4675224"><ele>1990.28</ele><time>2026-07-14T22:53:21.000Z</time></trkpt>
        <trkpt lat="27.5064255" lon="104.4674315"><ele>1990.46</ele><time>2026-07-14T22:53:23.000Z</time></trkpt>
        <trkpt lat="27.5065425" lon="104.4673328"><ele>1990.55</ele><time>2026-07-14T22:53:27.000Z</time></trkpt>
        <trkpt lat="27.5066622" lon="104.4672515"><ele>1990.59</ele><time>2026-07-14T22:53:31.000Z</time></trkpt>
        <trkpt lat="27.5067779" lon="104.467182"><ele>1990.82</ele><time>2026-07-14T22:53:35.000Z</time></trkpt>
        <trkpt lat="27.5069287" lon="104.4671164"><ele>1991.04</ele><time>2026-07-14T22:53:39.000Z</time></trkpt>
        <trkpt lat="27.5070363" lon="104.4670777"><ele>1991.45</ele><time>2026-07-14T22:53:41.000Z</time></trkpt>
        <trkpt lat="27.5071253" lon="104.4670434"><ele>1991.88</ele><time>2026-07-14T22:53:43.000Z</time></trkpt>
        <trkpt lat="27.5072551" lon="104.466996"><ele>1992.49</ele><time>2026-07-14T22:53:47.000Z</time></trkpt>
        <trkpt lat="27.5073896" lon="104.4669424"><ele>1993.12</ele><time>2026-07-14T22:53:51.000Z</time></trkpt>
        <trkpt lat="27.5075352" lon="104.4668773"><ele>1993.71</ele><time>2026-07-14T22:53:55.000Z</time></trkpt>
        <trkpt lat="27.5076813" lon="104.4668087"><ele>1994.36</ele><time>2026-07-14T22:53:59.000Z</time></trkpt>
        <trkpt lat="27.5078391" lon="104.4667401"><ele>1995</ele><time>2026-07-14T22:54:03.000Z</time></trkpt>
        <trkpt lat="27.5079925" lon="104.4666614"><ele>1995.77</ele><time>2026-07-14T22:54:07.000Z</time></trkpt>
        <trkpt lat="27.5081328" lon="104.4665812"><ele>1996.62</ele><time>2026-07-14T22:54:11.000Z</time></trkpt>
        <trkpt lat="27.5082561" lon="104.4664893"><ele>1997.6</ele><time>2026-07-14T22:54:15.000Z</time></trkpt>
        <trkpt lat="27.5083361" lon="104.4664076"><ele>1998.58</ele><time>2026-07-14T22:54:17.000Z</time></trkpt>
        <trkpt lat="27.5084017" lon="104.4663246"><ele>1999.31</ele><time>2026-07-14T22:54:19.000Z</time></trkpt>
        <trkpt lat="27.5084571" lon="104.4662393"><ele>1999.91</ele><time>2026-07-14T22:54:21.000Z</time></trkpt>
        <trkpt lat="27.508533" lon="104.4661344"><ele>2000.45</ele><time>2026-07-14T22:54:25.000Z</time></trkpt>
        <trkpt lat="27.5086762" lon="104.4660514"><ele>2001.07</ele><time>2026-07-14T22:54:29.000Z</time></trkpt>
        <trkpt lat="27.5087818" lon="104.466001"><ele>2002.05</ele><time>2026-07-14T22:54:31.000Z</time></trkpt>
        <trkpt lat="27.508874" lon="104.4659745"><ele>2002.93</ele><time>2026-07-14T22:54:33.000Z</time></trkpt>
        <trkpt lat="27.5089832" lon="104.4659257"><ele>2003.9</ele><time>2026-07-14T22:54:37.000Z</time></trkpt>
        <trkpt lat="27.5089786" lon="104.4658114"><ele>2005.27</ele><time>2026-07-14T22:54:41.000Z</time></trkpt>
        <trkpt lat="27.5089236" lon="104.4657048"><ele>2006.68</ele><time>2026-07-14T22:54:43.000Z</time></trkpt>
        <trkpt lat="27.5088522" lon="104.4655833"><ele>2007.78</ele><time>2026-07-14T22:54:45.000Z</time></trkpt>
        <trkpt lat="27.5087854" lon="104.465456"><ele>2008.68</ele><time>2026-07-14T22:54:47.000Z</time></trkpt>
        <trkpt lat="27.5087114" lon="104.4653459"><ele>2009.44</ele><time>2026-07-14T22:54:49.000Z</time></trkpt>
        <trkpt lat="27.5086191" lon="104.465283"><ele>2010.07</ele><time>2026-07-14T22:54:51.000Z</time></trkpt>
        <trkpt lat="27.5084977" lon="104.4652747"><ele>2010.71</ele><time>2026-07-14T22:54:53.000Z</time></trkpt>
        <trkpt lat="27.5083782" lon="104.465302"><ele>2011.43</ele><time>2026-07-14T22:54:55.000Z</time></trkpt>
        <trkpt lat="27.5082505" lon="104.4653071"><ele>2012.08</ele><time>2026-07-14T22:54:59.000Z</time></trkpt>
        <trkpt lat="27.508174" lon="104.4652389"><ele>2012.88</ele><time>2026-07-14T22:55:07.000Z</time></trkpt>
        <trkpt lat="27.5081212" lon="104.465241"><ele>2014.46</ele><time>2026-07-14T22:55:21.000Z</time></trkpt>
        <trkpt lat="27.5081346" lon="104.4651686"><ele>2016.04</ele><time>2026-07-14T22:55:57.000Z</time></trkpt>
        <trkpt lat="27.5082096" lon="104.4651949"><ele>2019.31</ele><time>2026-07-14T22:56:09.000Z</time></trkpt>
        <trkpt lat="27.5083019" lon="104.4651745"><ele>2021.21</ele><time>2026-07-14T22:56:23.000Z</time></trkpt>
        <trkpt lat="27.5083527" lon="104.4650824"><ele>2022</ele><time>2026-07-14T22:56:35.000Z</time></trkpt>
        <trkpt lat="27.5084054" lon="104.4649738"><ele>2022.13</ele><time>2026-07-14T22:56:47.000Z</time></trkpt>
        <trkpt lat="27.5084728" lon="104.4648764"><ele>2022.65</ele><time>2026-07-14T22:56:59.000Z</time></trkpt>
        <trkpt lat="27.5085298" lon="104.4647812"><ele>2023.76</ele><time>2026-07-14T22:57:13.000Z</time></trkpt>
        <trkpt lat="27.5086151" lon="104.4647377"><ele>2024.99</ele><time>2026-07-14T22:57:31.000Z</time></trkpt>
        <trkpt lat="27.5087088" lon="104.4647164"><ele>2026.59</ele><time>2026-07-14T22:57:41.000Z</time></trkpt>
        <trkpt lat="27.5088008" lon="104.4646881"><ele>2027.91</ele><time>2026-07-14T22:57:53.000Z</time></trkpt>
        <trkpt lat="27.5088832" lon="104.4646333"><ele>2029.48</ele><time>2026-07-14T22:58:05.000Z</time></trkpt>
        <trkpt lat="27.5089216" lon="104.4645363"><ele>2031.21</ele><time>2026-07-14T22:58:21.000Z</time></trkpt>
        <trkpt lat="27.5089269" lon="104.4644284"><ele>2033.66</ele><time>2026-07-14T22:58:33.000Z</time></trkpt>
        <trkpt lat="27.5089938" lon="104.4643664"><ele>2035.78</ele><time>2026-07-14T22:58:49.000Z</time></trkpt>
        <trkpt lat="27.5090881" lon="104.4643607"><ele>2038.34</ele><time>2026-07-14T22:59:05.000Z</time></trkpt>
        <trkpt lat="27.5091805" lon="104.464331"><ele>2040.63</ele><time>2026-07-14T22:59:19.000Z</time></trkpt>
        <trkpt lat="27.5092564" lon="104.4642692"><ele>2042.82</ele><time>2026-07-14T22:59:33.000Z</time></trkpt>
        <trkpt lat="27.5092973" lon="104.4641754"><ele>2045.03</ele><time>2026-07-14T22:59:43.000Z</time></trkpt>
        <trkpt lat="27.509365" lon="104.4640938"><ele>2047.01</ele><time>2026-07-14T22:59:59.000Z</time></trkpt>
        <trkpt lat="27.5094038" lon="104.4639996"><ele>2049.15</ele><time>2026-07-14T23:00:13.000Z</time></trkpt>
        <trkpt lat="27.5093918" lon="104.4638944"><ele>2051.41</ele><time>2026-07-14T23:00:27.000Z</time></trkpt>
        <trkpt lat="27.5094105" lon="104.4637965"><ele>2053.13</ele><time>2026-07-14T23:01:03.000Z</time></trkpt>
        <trkpt lat="27.5094133" lon="104.4636954"><ele>2054.68</ele><time>2026-07-14T23:01:13.000Z</time></trkpt>
        <trkpt lat="27.5093529" lon="104.4637274"><ele>2056.37</ele><time>2026-07-14T23:01:49.000Z</time></trkpt>
        <trkpt lat="27.509374" lon="104.4636782"><ele>2057.62</ele><time>2026-07-14T23:03:03.000Z</time></trkpt>
        <trkpt lat="27.5094547" lon="104.4636327"><ele>2057.99</ele><time>2026-07-14T23:03:13.000Z</time></trkpt>
        <trkpt lat="27.5095506" lon="104.463628"><ele>2058.12</ele><time>2026-07-14T23:03:23.000Z</time></trkpt>
        <trkpt lat="27.5096469" lon="104.4636518"><ele>2058.35</ele><time>2026-07-14T23:03:59.000Z</time></trkpt>
        <trkpt lat="27.5097281" lon="104.4637175"><ele>2059.78</ele><time>2026-07-14T23:04:09.000Z</time></trkpt>
        <trkpt lat="27.5098181" lon="104.46378"><ele>2061</ele><time>2026-07-14T23:04:21.000Z</time></trkpt>
        <trkpt lat="27.5098882" lon="104.4638559"><ele>2062.24</ele><time>2026-07-14T23:05:53.000Z</time></trkpt>
        <trkpt lat="27.5099471" lon="104.4639351"><ele>2064.43</ele><time>2026-07-14T23:08:29.000Z</time></trkpt>
        <trkpt lat="27.5100386" lon="104.4639416"><ele>2064.38</ele><time>2026-07-14T23:09:07.000Z</time></trkpt>
        <trkpt lat="27.5101371" lon="104.4639448"><ele>2064.07</ele><time>2026-07-14T23:09:13.000Z</time></trkpt>
        <trkpt lat="27.5102418" lon="104.4639595"><ele>2064.11</ele><time>2026-07-14T23:09:49.000Z</time></trkpt>
        <trkpt lat="27.5102776" lon="104.4638834"><ele>2063.75</ele><time>2026-07-14T23:10:25.000Z</time></trkpt>
        <trkpt lat="27.5102353" lon="104.4639641"><ele>2062.27</ele><time>2026-07-14T23:14:59.000Z</time></trkpt>
        <trkpt lat="27.5101359" lon="104.4639623"><ele>2061.52</ele><time>2026-07-14T23:15:43.000Z</time></trkpt>
        <trkpt lat="27.5100441" lon="104.4639537"><ele>2061.5</ele><time>2026-07-14T23:15:55.000Z</time></trkpt>
        <trkpt lat="27.5099429" lon="104.4639268"><ele>2061.57</ele><time>2026-07-14T23:16:07.000Z</time></trkpt>
        <trkpt lat="27.5098587" lon="104.4638795"><ele>2062.03</ele><time>2026-07-14T23:18:05.000Z</time></trkpt>
        <trkpt lat="27.5097805" lon="104.463827"><ele>2062.84</ele><time>2026-07-14T23:18:15.000Z</time></trkpt>
        <trkpt lat="27.5098245" lon="104.4637502"><ele>2062.94</ele><time>2026-07-14T23:18:25.000Z</time></trkpt>
        <trkpt lat="27.5098476" lon="104.463643"><ele>2063.06</ele><time>2026-07-14T23:19:33.000Z</time></trkpt>
        <trkpt lat="27.5098127" lon="104.463546"><ele>2063.46</ele><time>2026-07-14T23:19:45.000Z</time></trkpt>
        <trkpt lat="27.5097939" lon="104.4634357"><ele>2064.09</ele><time>2026-07-14T23:19:55.000Z</time></trkpt>
        <trkpt lat="27.5097702" lon="104.463333"><ele>2064.62</ele><time>2026-07-14T23:20:03.000Z</time></trkpt>
        <trkpt lat="27.5097741" lon="104.4632292"><ele>2065.26</ele><time>2026-07-14T23:20:13.000Z</time></trkpt>
        <trkpt lat="27.5098145" lon="104.4631324"><ele>2066.14</ele><time>2026-07-14T23:20:23.000Z</time></trkpt>
        <trkpt lat="27.5098862" lon="104.4630614"><ele>2066.99</ele><time>2026-07-14T23:20:33.000Z</time></trkpt>
        <trkpt lat="27.509963" lon="104.4629928"><ele>2068.23</ele><time>2026-07-14T23:20:45.000Z</time></trkpt>
        <trkpt lat="27.5100465" lon="104.462928"><ele>2070.06</ele><time>2026-07-14T23:20:57.000Z</time></trkpt>
        <trkpt lat="27.5101159" lon="104.4628405"><ele>2071.97</ele><time>2026-07-14T23:21:09.000Z</time></trkpt>
        <trkpt lat="27.5101725" lon="104.4627427"><ele>2073.82</ele><time>2026-07-14T23:21:21.000Z</time></trkpt>
        <trkpt lat="27.5102489" lon="104.4626767"><ele>2075.56</ele><time>2026-07-14T23:21:35.000Z</time></trkpt>
        <trkpt lat="27.5103319" lon="104.4626152"><ele>2077.28</ele><time>2026-07-14T23:21:49.000Z</time></trkpt>
        <trkpt lat="27.5103131" lon="104.4625407"><ele>2078.74</ele><time>2026-07-14T23:22:11.000Z</time></trkpt>
        <trkpt lat="27.510192" lon="104.4624797"><ele>2080.01</ele><time>2026-07-14T23:24:17.000Z</time></trkpt>
        <trkpt lat="27.5101045" lon="104.4624508"><ele>2080.36</ele><time>2026-07-14T23:24:55.000Z</time></trkpt>
        <trkpt lat="27.510007" lon="104.4624572"><ele>2081.07</ele><time>2026-07-14T23:25:13.000Z</time></trkpt>
        <trkpt lat="27.5099036" lon="104.4624587"><ele>2081.44</ele><time>2026-07-14T23:25:47.000Z</time></trkpt>
        <trkpt lat="27.509892" lon="104.4625699"><ele>2081.64</ele><time>2026-07-14T23:31:39.000Z</time></trkpt>
        <trkpt lat="27.5099018" lon="104.4626844"><ele>2082.25</ele><time>2026-07-14T23:31:57.000Z</time></trkpt>
        <trkpt lat="27.50981" lon="104.4627147"><ele>2082.69</ele><time>2026-07-14T23:33:29.000Z</time></trkpt>
        <trkpt lat="27.5097213" lon="104.4627652"><ele>2082.96</ele><time>2026-07-14T23:33:41.000Z</time></trkpt>
        <trkpt lat="27.50964" lon="104.4627248"><ele>2083.16</ele><time>2026-07-14T23:33:49.000Z</time></trkpt>
        <trkpt lat="27.5095422" lon="104.4627511"><ele>2082.8</ele><time>2026-07-14T23:33:59.000Z</time></trkpt>
        <trkpt lat="27.5094569" lon="104.4628042"><ele>2081.96</ele><time>2026-07-14T23:34:07.000Z</time></trkpt>
        <trkpt lat="27.509364" lon="104.4628607"><ele>2081.11</ele><time>2026-07-14T23:34:15.000Z</time></trkpt>
        <trkpt lat="27.5092799" lon="104.4629217"><ele>2080.48</ele><time>2026-07-14T23:34:23.000Z</time></trkpt>
        <trkpt lat="27.5091929" lon="104.4629575"><ele>2079.94</ele><time>2026-07-14T23:34:33.000Z</time></trkpt>
        <trkpt lat="27.509103" lon="104.4629526"><ele>2078.86</ele><time>2026-07-14T23:34:43.000Z</time></trkpt>
        <trkpt lat="27.50907" lon="104.4630222"><ele>2077.78</ele><time>2026-07-14T23:35:07.000Z</time></trkpt>
        <trkpt lat="27.5090388" lon="104.4631209"><ele>2076.9</ele><time>2026-07-14T23:35:49.000Z</time></trkpt>
        <trkpt lat="27.5090018" lon="104.463224"><ele>2076.29</ele><time>2026-07-14T23:36:03.000Z</time></trkpt>
        <trkpt lat="27.5089218" lon="104.4632878"><ele>2074.98</ele><time>2026-07-14T23:36:17.000Z</time></trkpt>
        <trkpt lat="27.5088271" lon="104.4633533"><ele>2073.68</ele><time>2026-07-14T23:36:27.000Z</time></trkpt>
        <trkpt lat="27.5087365" lon="104.4634145"><ele>2072.11</ele><time>2026-07-14T23:36:37.000Z</time></trkpt>
        <trkpt lat="27.5087044" lon="104.4635128"><ele>2070.26</ele><time>2026-07-14T23:36:51.000Z</time></trkpt>
        <trkpt lat="27.5086341" lon="104.4635542"><ele>2067.57</ele><time>2026-07-14T23:36:59.000Z</time></trkpt>
        <trkpt lat="27.5085397" lon="104.4635781"><ele>2065.16</ele><time>2026-07-14T23:37:09.000Z</time></trkpt>
        <trkpt lat="27.5084325" lon="104.4635978"><ele>2062.88</ele><time>2026-07-14T23:37:19.000Z</time></trkpt>
        <trkpt lat="27.5083348" lon="104.4636002"><ele>2060.83</ele><time>2026-07-14T23:37:27.000Z</time></trkpt>
        <trkpt lat="27.5082499" lon="104.4636358"><ele>2059.01</ele><time>2026-07-14T23:37:35.000Z</time></trkpt>
        <trkpt lat="27.5082004" lon="104.4637276"><ele>2057.27</ele><time>2026-07-14T23:37:45.000Z</time></trkpt>
        <trkpt lat="27.5081217" lon="104.4637982"><ele>2055.08</ele><time>2026-07-14T23:37:55.000Z</time></trkpt>
        <trkpt lat="27.5080208" lon="104.4638185"><ele>2052.96</ele><time>2026-07-14T23:38:05.000Z</time></trkpt>
        <trkpt lat="27.5079099" lon="104.4638165"><ele>2050.55</ele><time>2026-07-14T23:38:15.000Z</time></trkpt>
        <trkpt lat="27.5078024" lon="104.4638155"><ele>2048.33</ele><time>2026-07-14T23:38:25.000Z</time></trkpt>
        <trkpt lat="27.5077004" lon="104.4638347"><ele>2046.1</ele><time>2026-07-14T23:38:37.000Z</time></trkpt>
        <trkpt lat="27.5076169" lon="104.4638904"><ele>2043.97</ele><time>2026-07-14T23:38:47.000Z</time></trkpt>
        <trkpt lat="27.50754" lon="104.4639521"><ele>2041.87</ele><time>2026-07-14T23:38:57.000Z</time></trkpt>
        <trkpt lat="27.5074713" lon="104.4640348"><ele>2039.81</ele><time>2026-07-14T23:39:07.000Z</time></trkpt>
        <trkpt lat="27.5074144" lon="104.4641198"><ele>2037.93</ele><time>2026-07-14T23:39:15.000Z</time></trkpt>
        <trkpt lat="27.5073632" lon="104.4642137"><ele>2036.19</ele><time>2026-07-14T23:39:27.000Z</time></trkpt>
        <trkpt lat="27.5073049" lon="104.4643087"><ele>2033.73</ele><time>2026-07-14T23:39:37.000Z</time></trkpt>
        <trkpt lat="27.5072765" lon="104.4644223"><ele>2031.56</ele><time>2026-07-14T23:39:49.000Z</time></trkpt>
        <trkpt lat="27.5072668" lon="104.464532"><ele>2030</ele><time>2026-07-14T23:40:01.000Z</time></trkpt>
        <trkpt lat="27.507333" lon="104.4646094"><ele>2028.63</ele><time>2026-07-14T23:40:09.000Z</time></trkpt>
        <trkpt lat="27.5074304" lon="104.4646755"><ele>2027.53</ele><time>2026-07-14T23:40:55.000Z</time></trkpt>
        <trkpt lat="27.507536" lon="104.464712"><ele>2025.99</ele><time>2026-07-14T23:41:03.000Z</time></trkpt>
        <trkpt lat="27.5076377" lon="104.4647609"><ele>2024.74</ele><time>2026-07-14T23:41:13.000Z</time></trkpt>
        <trkpt lat="27.5077334" lon="104.4648205"><ele>2023.02</ele><time>2026-07-14T23:41:23.000Z</time></trkpt>
        <trkpt lat="27.5078161" lon="104.4648755"><ele>2021.67</ele><time>2026-07-14T23:41:31.000Z</time></trkpt>
        <trkpt lat="27.5078936" lon="104.4649288"><ele>2020.65</ele><time>2026-07-14T23:41:39.000Z</time></trkpt>
        <trkpt lat="27.5079781" lon="104.4649897"><ele>2019.78</ele><time>2026-07-14T23:41:49.000Z</time></trkpt>
        <trkpt lat="27.5080507" lon="104.4650628"><ele>2018.63</ele><time>2026-07-14T23:41:57.000Z</time></trkpt>
        <trkpt lat="27.5081159" lon="104.4651389"><ele>2018.1</ele><time>2026-07-14T23:42:05.000Z</time></trkpt>
        <trkpt lat="27.5081312" lon="104.4652419"><ele>2017.9</ele><time>2026-07-14T23:43:39.000Z</time></trkpt>
        <trkpt lat="27.5082758" lon="104.4653271"><ele>2017.74</ele><time>2026-07-14T23:44:47.000Z</time></trkpt>
        <trkpt lat="27.5084125" lon="104.4653575"><ele>2017.66</ele><time>2026-07-14T23:44:53.000Z</time></trkpt>
        <trkpt lat="27.5085384" lon="104.4653348"><ele>2017.52</ele><time>2026-07-14T23:44:57.000Z</time></trkpt>
        <trkpt lat="27.5086552" lon="104.465331"><ele>2017.5</ele><time>2026-07-14T23:45:01.000Z</time></trkpt>
        <trkpt lat="27.5087596" lon="104.4653677"><ele>2017.56</ele><time>2026-07-14T23:45:05.000Z</time></trkpt>
        <trkpt lat="27.5088329" lon="104.4654648"><ele>2017.69</ele><time>2026-07-14T23:45:09.000Z</time></trkpt>
        <trkpt lat="27.5088811" lon="104.4656032"><ele>2017.79</ele><time>2026-07-14T23:45:13.000Z</time></trkpt>
        <trkpt lat="27.5089253" lon="104.4657324"><ele>2017.89</ele><time>2026-07-14T23:45:17.000Z</time></trkpt>
        <trkpt lat="27.5089732" lon="104.4658343"><ele>2017.96</ele><time>2026-07-14T23:45:27.000Z</time></trkpt>
        <trkpt lat="27.5089732" lon="104.4658343"><ele>2017.96</ele><time>2026-07-14T23:46:44.000Z</time></trkpt>
      </trkseg>
  </trk>
</gpx>